Time;durP1;ratioP1;P1;durP2;ratioP2;P2;SDS_P1;SDS_P2;PMS_P1;PMS_P2;Temp;Humidity;BMP_temperature;BMP_pressure;BME280_temperature;BME280_humidity;BME280_pressure;Samples;Min_cycle;Max_cycle;Signal;HPM_P1;HPM_P2
2023/06/27 00:00:45;;;;;;;12.00;3.57;;;;;;;14.35;100.00;101029.47;4975488;28;20039;-85
2023/06/27 00:03:11;;;;;;;;;;;;;;;14.41;100.00;101044.03;4959768;28;20031;-88
2023/06/27 00:05:36;;;;;;;12.82;4.18;;;;;;;14.28;100.00;101028.53;4952747;28;19921;-90
2023/06/27 00:08:03;;;;;;;12.50;3.50;;;;;;;14.31;100.00;101030.84;4953497;28;20152;-88
2023/06/27 00:10:28;;;;;;;;;;;;;;;14.33;100.00;101026.13;4954615;28;20134;-87
2023/06/27 00:12:53;;;;;;;13.70;4.43;;;;;;;14.30;100.00;101023.78;4953089;28;20030;-87
2023/06/27 00:15:19;;;;;;;16.67;3.97;;;;;;;14.13;100.00;101008.84;4969232;28;20031;-89
2023/06/27 00:17:45;;;;;;;14.03;3.93;;;;;;;14.14;100.00;101018.53;4952662;28;20019;-88
2023/06/27 00:20:11;;;;;;;13.73;4.50;;;;;;;14.14;100.00;101015.88;4968818;28;20038;-89
2023/06/27 00:22:39;;;;;;;13.02;3.50;;;;;;;14.03;100.00;101008.25;4952589;28;20035;-89
2023/06/27 00:25:06;;;;;;;6.68;3.10;;;;;;;14.00;100.00;101009.44;4952294;28;20106;-86
2023/06/27 00:27:31;;;;;;;9.35;3.50;;;;;;;14.00;100.00;101003.22;4937065;28;20086;-86
2023/06/27 00:29:58;;;;;;;10.00;3.03;;;;;;;14.09;100.00;101007.50;4936983;29;20730;-87
2023/06/27 00:32:23;;;;;;;6.50;3.10;;;;;;;13.98;100.00;101000.72;4953358;28;20185;-88
2023/06/27 00:34:49;;;;;;;9.40;3.37;;;;;;;13.92;100.00;101007.63;4953499;28;20096;-88
2023/06/27 00:37:14;;;;;;;19.45;4.90;;;;;;;13.91;100.00;101016.72;4968844;28;20030;-89
2023/06/27 00:39:41;;;;;;;8.93;2.90;;;;;;;13.88;100.00;101010.84;4968711;28;20063;-88
2023/06/27 00:42:06;;;;;;;9.13;3.75;;;;;;;13.83;100.00;101006.00;4968000;28;20067;-88
2023/06/27 00:44:32;;;;;;;12.75;3.78;;;;;;;13.84;100.00;101002.34;4937086;29;20097;-87
2023/06/27 00:46:58;;;;;;;9.57;2.93;;;;;;;13.84;100.00;101005.00;4952048;28;20031;-87
2023/06/27 00:49:23;;;;;;;8.40;3.17;;;;;;;13.89;100.00;101016.03;4952434;29;20039;-87
2023/06/27 00:51:51;;;;;;;14.63;3.40;;;;;;;13.78;100.00;101005.72;4952208;28;20070;-89
2023/06/27 00:54:17;;;;;;;12.27;4.72;;;;;;;13.81;100.00;101015.25;4968122;28;20042;-89
2023/06/27 00:56:44;;;;;;;7.97;2.78;;;;;;;13.71;100.00;101008.25;4951439;28;20070;-83
2023/06/27 00:59:10;;;;;;;14.07;4.07;;;;;;;13.71;100.00;101018.16;4967682;28;20046;-89
2023/06/27 01:01:36;;;;;;;14.45;3.30;;;;;;;13.75;100.00;101022.19;4936386;28;20027;-88
2023/06/27 01:04:02;;;;;;;10.93;3.13;;;;;;;13.80;100.00;101009.06;4952240;28;20043;-89
2023/06/27 01:06:33;;;;;;;15.30;3.50;;;;;;;13.72;100.00;100977.75;4952412;28;20023;-88
2023/06/27 01:09:20;;;;;;;10.15;4.75;;;;;;;13.79;100.00;100980.56;4936443;29;20047;-89
2023/06/27 01:12:04;;;;;;;13.70;3.63;;;;;;;13.79;100.00;100969.84;4952057;28;20027;-89
2023/06/27 01:14:31;;;;;;;15.35;3.17;;;;;;;13.81;100.00;100973.16;4968537;28;20062;-88
2023/06/27 01:16:57;;;;;;;12.80;2.63;;;;;;;13.81;100.00;100972.31;4968705;28;20019;-88
2023/06/27 01:19:31;;;;;;;12.45;3.13;;;;;;;13.91;100.00;100960.34;4952714;29;20039;-89
2023/06/27 01:22:05;;;;;;;14.33;3.60;;;;;;;13.86;100.00;100959.19;4968770;28;20043;-89
2023/06/27 01:24:32;;;;;;;11.75;3.80;;;;;;;13.80;100.00;100960.75;4968242;28;20283;-89
2023/06/27 01:26:58;;;;;;;11.95;2.55;;;;;;;13.82;100.00;100958.72;4952412;28;20143;-88
2023/06/27 01:29:24;;;;;;;13.95;3.33;;;;;;;13.74;100.00;100950.72;4968373;28;20163;-88
2023/06/27 01:31:55;;;;;;;5.82;3.00;;;;;;;13.73;100.00;100957.13;4943865;28;20031;-89
2023/06/27 01:34:32;;;;;;;12.63;3.90;;;;;;;13.74;100.00;100961.47;4967830;28;20561;-88
2023/06/27 01:37:00;;;;;;;;;;;;;;;13.70;100.00;100973.59;4952037;28;20498;-88
2023/06/27 01:39:32;;;;;;;16.02;4.10;;;;;;;13.66;100.00;100961.53;4984268;28;20038;-89
2023/06/27 01:42:05;;;;;;;15.88;3.08;;;;;;;13.63;100.00;100965.41;4968232;28;20413;-88
2023/06/27 01:44:33;;;;;;;8.25;3.00;;;;;;;13.62;100.00;100969.06;4967798;28;20406;-90
2023/06/27 01:46:58;;;;;;;12.45;2.90;;;;;;;13.59;100.00;100965.94;4951486;28;20015;-89
2023/06/27 01:49:24;;;;;;;7.87;3.67;;;;;;;13.63;100.00;100976.13;4935651;29;20046;-88
2023/06/27 01:51:49;;;;;;;12.32;3.80;;;;;;;13.64;100.00;100961.69;4935496;29;20031;-88
2023/06/27 01:54:15;;;;;;;15.23;4.23;;;;;;;13.65;100.00;100949.09;4968051;28;20130;-88
2023/06/27 01:56:40;;;;;;;14.73;3.30;;;;;;;13.54;100.00;100936.94;4951964;28;20031;-86
2023/06/27 01:59:06;;;;;;;10.13;3.57;;;;;;;13.45;100.00;100946.88;4967227;28;20082;-89
2023/06/27 02:01:32;;;;;;;11.20;3.53;;;;;;;13.42;100.00;100957.97;4951311;28;20019;-89
2023/06/27 02:03:57;;;;;;;16.45;4.28;;;;;;;13.41;100.00;100963.50;4967103;28;20490;-88
2023/06/27 02:06:22;;;;;;;9.70;3.13;;;;;;;13.46;100.00;100969.16;4951313;28;20066;-89
2023/06/27 02:08:48;;;;;;;9.60;3.20;;;;;;;13.43;100.00;100970.38;4962158;28;20036;-88
2023/06/27 02:11:13;;;;;;;11.10;4.17;;;;;;;13.40;100.00;100967.22;4950870;29;20031;-88
2023/06/27 02:13:41;;;;;;;16.23;3.50;;;;;;;13.41;100.00;100974.22;4950770;28;20494;-88
2023/06/27 02:16:06;;;;;;;14.93;4.03;;;;;;;13.32;100.00;100964.56;4952275;29;20035;-89
2023/06/27 02:18:31;;;;;;;16.23;4.70;;;;;;;13.26;100.00;100968.75;4961748;28;20027;-89
2023/06/27 02:20:57;;;;;;;23.10;4.40;;;;;;;13.35;100.00;100986.50;4962201;28;20127;-88
2023/06/27 02:23:22;;;;;;;17.40;4.73;;;;;;;13.39;100.00;100995.88;4963022;28;20041;-88
2023/06/27 02:25:49;;;;;;;10.50;3.15;;;;;;;13.38;100.00;100991.50;4946809;29;20035;-88
2023/06/27 02:28:14;;;;;;;20.80;4.90;;;;;;;13.27;100.00;100981.13;4962362;28;20086;-89
2023/06/27 02:30:41;;;;;;;20.30;3.93;;;;;;;13.25;100.00;100999.22;4958414;29;20027;-88
2023/06/27 02:33:06;;;;;;;;;;;;;;;13.20;100.00;101004.28;4980179;28;20015;-88
2023/06/27 02:35:31;;;;;;;;;;;;;;;13.23;100.00;101020.06;4963771;29;19921;-86
2023/06/27 02:37:57;;;;;;;14.07;3.33;;;;;;;13.23;100.00;101015.53;4977967;28;19921;-89
2023/06/27 02:40:22;;;;;;;15.25;4.28;;;;;;;13.21;100.00;101030.09;4977485;28;20564;-89
2023/06/27 02:42:48;;;;;;;14.90;3.70;;;;;;;13.20;100.00;101031.94;4955313;28;20027;-89
2023/06/27 02:45:13;;;;;;;15.70;3.40;;;;;;;13.19;100.00;101022.22;4953662;29;20035;-89
2023/06/27 02:47:39;;;;;;;9.93;4.10;;;;;;;13.14;100.00;101029.97;4954272;28;20859;-89
2023/06/27 02:50:04;;;;;;;10.70;4.00;;;;;;;13.17;100.00;101028.78;4970133;28;20118;-89
2023/06/27 02:52:30;;;;;;;14.30;4.07;;;;;;;13.18;100.00;101039.34;4972444;28;20035;-89
2023/06/27 02:54:55;;;;;;;14.93;4.25;;;;;;;13.21;100.00;101040.84;4955406;29;20505;-88
2023/06/27 02:57:21;;;;;;;12.25;3.20;;;;;;;13.26;100.00;101033.09;4940820;28;20019;-89
2023/06/27 02:59:47;;;;;;;;;;;;;;;13.32;100.00;101010.97;4957215;29;20043;-89
2023/06/27 03:02:15;;;;;;;18.00;4.72;;;;;;;13.32;100.00;101010.13;4956364;28;19933;-89
2023/06/27 03:04:40;;;;;;;17.93;3.97;;;;;;;13.32;100.00;101010.97;4972273;28;20522;-89
2023/06/27 03:07:06;;;;;;;25.15;5.22;;;;;;;13.30;100.00;101004.97;4956621;28;20541;-87
2023/06/27 03:09:32;;;;;;;20.07;3.47;;;;;;;13.32;100.00;100997.56;4956679;29;20058;-87
2023/06/27 03:11:58;;;;;;;13.25;3.10;;;;;;;13.26;100.00;100998.25;4973006;28;20537;-86
2023/06/27 03:14:25;;;;;;;19.38;4.03;;;;;;;13.27;100.00;101002.59;4972746;28;20039;-87
2023/06/27 03:16:54;;;;;;;14.85;3.00;;;;;;;13.29;100.00;100995.25;4954490;28;20398;-89
2023/06/27 03:19:20;;;;;;;18.13;4.07;;;;;;;13.27;100.00;100992.75;4958302;28;20121;-88
2023/06/27 03:21:45;;;;;;;13.88;3.38;;;;;;;13.24;100.00;100998.41;4957223;28;20051;-89
2023/06/27 03:24:10;;;;;;;11.77;3.47;;;;;;;13.29;100.00;100990.72;4970864;28;20035;-88
2023/06/27 03:26:44;;;;;;;10.85;3.33;;;;;;;13.31;100.00;100993.22;4954416;28;20038;-89
2023/06/27 03:29:10;;;;;;;11.23;3.15;;;;;;;13.40;100.00;100989.50;4970654;28;20042;-85
2023/06/27 03:31:35;;;;;;;10.70;3.20;;;;;;;13.43;100.00;100997.19;4954817;28;20027;-86
2023/06/27 03:34:02;;;;;;;15.00;3.22;;;;;;;13.46;100.00;100986.13;4969951;28;20156;-88
2023/06/27 03:36:29;;;;;;;;;;;;;;;13.48;100.00;100984.06;4938546;28;20101;-88
2023/06/27 03:38:55;;;;;;;9.43;3.40;;;;;;;13.49;100.00;100985.75;4954575;28;19918;-88
2023/06/27 03:41:20;;;;;;;10.57;3.25;;;;;;;13.45;100.00;100981.75;4953679;28;20042;-88
2023/06/27 03:43:46;;;;;;;10.68;2.53;;;;;;;13.52;100.00;100988.09;4953851;28;20153;-88
2023/06/27 03:46:12;;;;;;;16.03;4.53;;;;;;;13.54;100.00;100987.91;4954922;28;20030;-88
2023/06/27 03:48:38;;;;;;;16.65;4.45;;;;;;;13.61;100.00;100988.06;4964213;28;20038;-87
2023/06/27 03:51:04;;;;;;;12.95;3.78;;;;;;;13.70;100.00;100987.00;4969567;28;20541;-89
2023/06/27 03:53:29;;;;;;;12.77;2.90;;;;;;;13.71;100.00;100975.25;4973204;28;20047;-86
2023/06/27 03:55:55;;;;;;;11.93;3.20;;;;;;;13.77;100.00;100971.03;4956334;28;20090;-88
2023/06/27 03:58:20;;;;;;;5.53;2.40;;;;;;;13.78;100.00;100976.19;4971307;28;20581;-89
2023/06/27 04:00:51;;;;;;;11.93;3.00;;;;;;;13.88;100.00;100979.50;4955378;28;20033;-86
2023/06/27 04:03:17;;;;;;;10.90;2.92;;;;;;;13.99;100.00;100980.09;4971853;28;20027;-87
2023/06/27 04:05:43;;;;;;;9.10;3.03;;;;;;;14.01;100.00;100972.69;4971018;28;20027;-88
2023/06/27 04:08:09;;;;;;;14.57;3.27;;;;;;;14.13;100.00;100968.56;4970417;28;20023;-88
2023/06/27 04:10:35;;;;;;;10.10;2.47;;;;;;;14.17;100.00;100961.00;4953981;28;20031;-88
2023/06/27 04:13:00;;;;;;;12.87;3.13;;;;;;;14.17;100.00;100951.09;4955675;28;20043;-88
2023/06/27 04:15:25;;;;;;;9.53;2.90;;;;;;;14.31;100.00;100950.28;4954932;28;20023;-89
2023/06/27 04:17:51;;;;;;;14.07;2.67;;;;;;;14.36;100.00;100942.50;4956703;28;20114;-88
2023/06/27 04:20:16;;;;;;;9.30;2.90;;;;;;;14.36;100.00;100921.03;4957386;28;20023;-86
2023/06/27 04:22:43;;;;;;;17.55;4.45;;;;;;;14.48;100.00;100915.19;4956438;29;20039;-88
2023/06/27 04:25:10;;;;;;;13.40;3.55;;;;;;;14.53;100.00;100902.88;4953318;28;20031;-88
2023/06/27 04:27:37;;;;;;;12.10;2.20;;;;;;;14.64;100.00;100898.94;4965686;28;20642;-89
2023/06/27 04:30:03;;;;;;;12.63;2.60;;;;;;;14.74;100.00;100912.91;4953304;28;20023;-88
2023/06/27 04:32:28;;;;;;;16.33;3.42;;;;;;;14.78;100.00;100892.72;4968780;28;20031;-89
2023/06/27 04:34:57;;;;;;;10.20;2.20;;;;;;;14.90;100.00;100898.44;4937436;29;20030;-88
2023/06/27 04:37:23;;;;;;;12.25;2.17;;;;;;;14.90;100.00;100860.00;4970048;28;20447;-88
2023/06/27 04:39:49;;;;;;;8.18;1.92;;;;;;;15.03;100.00;100848.56;4955890;28;20020;-86
2023/06/27 04:42:15;;;;;;;11.63;2.45;;;;;;;15.13;100.00;100841.84;4972200;28;20448;-86
2023/06/27 04:44:40;;;;;;;8.90;2.58;;;;;;;15.29;100.00;100832.72;4971905;28;20056;-88
2023/06/27 04:47:05;;;;;;;9.30;2.17;;;;;;;15.45;100.00;100826.22;4969369;28;20043;-85
2023/06/27 04:49:31;;;;;;;16.27;3.40;;;;;;;15.66;100.00;100806.56;4954368;28;20278;-88
2023/06/27 04:51:57;;;;;;;15.37;3.27;;;;;;;15.67;100.00;100772.41;4935863;29;20032;-88
2023/06/27 04:54:22;;;;;;;9.30;2.45;;;;;;;15.77;100.00;100767.53;4952370;28;20283;-88
2023/06/27 04:56:48;;;;;;;8.97;2.03;;;;;;;15.89;100.00;100762.44;4970317;28;20050;-88
2023/06/27 04:59:13;;;;;;;12.30;2.47;;;;;;;15.93;100.00;100743.00;4955904;28;20027;-88
2023/06/27 05:01:38;;;;;;;7.10;1.87;;;;;;;15.98;100.00;100732.47;4970175;28;20287;-87
2023/06/27 05:04:04;;;;;;;8.73;2.00;;;;;;;16.10;100.00;100740.00;4970781;28;20114;-88
2023/06/27 05:06:33;;;;;;;10.68;2.50;;;;;;;15.90;100.00;100673.41;4953353;29;20043;-87
2023/06/27 05:08:59;;;;;;;7.15;2.05;;;;;;;16.14;100.00;100693.63;4937766;28;20050;-88
2023/06/27 05:11:24;;;;;;;5.70;1.57;;;;;;;16.33;100.00;100678.56;4961152;28;20846;-88
2023/06/27 05:13:50;;;;;;;10.85;1.95;;;;;;;16.56;100.00;100690.88;4954330;28;20283;-88
2023/06/27 05:16:15;;;;;;;7.73;1.97;;;;;;;16.56;100.00;100672.00;4952909;28;20039;-88
2023/06/27 05:18:41;;;;;;;9.07;1.80;;;;;;;16.36;100.00;100616.19;4952728;28;20466;-87
2023/06/27 05:21:07;;;;;;;8.65;1.92;;;;;;;16.40;100.00;100667.81;4963182;28;20034;-87
2023/06/27 05:23:32;;;;;;;7.80;2.10;;;;;;;16.37;100.00;100679.00;4953299;28;20050;-88
2023/06/27 05:25:58;;;;;;;8.33;2.13;;;;;;;16.78;100.00;100713.94;4936381;29;20031;-88
2023/06/27 05:28:23;;;;;;;7.75;2.33;;;;;;;17.05;100.00;100687.06;4953342;28;20159;-86
2023/06/27 05:30:49;;;;;;;10.40;2.53;;;;;;;17.02;100.00;100606.53;4937383;29;20047;-88
2023/06/27 05:33:14;;;;;;;6.40;1.90;;;;;;;17.03;100.00;100554.28;4953173;28;20336;-87
2023/06/27 05:35:59;;;;;;;4.40;1.58;;;;;;;17.41;100.00;100654.22;4952670;29;20568;-85
2023/06/27 05:38:24;;;;;;;5.60;1.67;;;;;;;18.06;100.00;100580.53;4947259;28;20070;-87
2023/06/27 05:40:49;;;;;;;10.73;1.70;;;;;;;18.40;100.00;100436.03;4951180;28;20077;-87
2023/06/27 05:43:15;;;;;;;10.07;3.00;;;;;;;18.97;100.00;100301.50;4968483;28;20132;-87
2023/06/27 05:45:40;;;;;;;14.47;3.17;;;;;;;19.49;100.00;100237.88;4970402;28;20035;-88
2023/06/27 05:48:05;;;;;;;4.50;1.60;;;;;;;19.24;100.00;100236.19;4970783;28;20019;-87
2023/06/27 05:50:31;;;;;;;5.90;1.40;;;;;;;20.08;100.00;100192.66;4955020;28;20059;-87
2023/06/27 05:52:56;;;;;;;7.33;1.73;;;;;;;19.92;100.00;99927.91;4953679;29;20051;-87
2023/06/27 05:55:21;;;;;;;7.50;1.73;;;;;;;20.49;100.00;100073.38;4969432;28;20110;-87
2023/06/27 05:57:47;;;;;;;5.10;1.67;;;;;;;21.00;100.00;100125.78;4952667;28;20054;-87
2023/06/27 06:00:14;;;;;;;5.73;2.40;;;;;;;20.81;100.00;99908.19;4955665;28;20030;-87
2023/06/27 06:02:42;;;;;;;4.97;1.38;;;;;;;20.84;98.85;99896.88;4959188;28;20126;-87
2023/06/27 06:05:10;;;;;;;5.72;1.55;;;;;;;20.77;97.10;99869.09;4941766;28;20015;-87
2023/06/27 06:07:41;;;;;;;7.25;1.50;;;;;;;21.58;93.66;99899.13;4939473;29;20528;-86
2023/06/27 06:10:07;;;;;;;6.60;1.33;;;;;;;21.16;91.48;99726.00;4957066;29;20041;-89
2023/06/27 06:12:32;;;;;;;;;;;;;;;21.16;92.31;99898.88;4957143;28;20027;-90
2023/06/27 06:14:58;;;;;;;11.25;3.28;;;;;;;21.14;90.84;99863.03;4987695;28;20050;-90
2023/06/27 06:17:23;;;;;;;6.83;2.03;;;;;;;21.10;92.14;99989.47;4954535;28;20042;-89
2023/06/27 06:19:48;;;;;;;7.17;1.77;;;;;;;21.14;90.15;99882.03;4963447;28;20042;-89
2023/06/27 06:22:14;;;;;;;4.70;1.77;;;;;;;21.88;88.87;99977.41;4952305;28;20051;-90
2023/06/27 06:24:39;;;;;;;5.40;1.47;;;;;;;21.63;86.24;99795.13;4951635;29;20122;-90
2023/06/27 06:27:05;;;;;;;8.20;1.57;;;;;;;21.67;88.05;100005.41;4942215;28;20263;-91
2023/06/27 06:29:30;;;;;;;6.38;1.58;;;;;;;21.65;85.51;99820.16;4951869;29;20042;-91
2023/06/27 06:31:56;;;;;;;7.70;2.13;;;;;;;20.60;90.86;100076.06;4952360;28;20078;-86
2023/06/27 06:34:21;;;;;;;5.10;1.63;;;;;;;20.84;90.53;100094.91;4968357;28;20126;-87
2023/06/27 06:36:46;;;;;;;5.67;1.27;;;;;;;21.48;89.34;100162.41;4933774;29;20398;-86
2023/06/27 06:39:12;;;;;;;13.80;2.30;;;;;;;21.96;84.35;99919.06;4968056;28;20031;-86
2023/06/27 06:41:37;;;;;;;6.87;1.73;;;;;;;21.13;87.53;100045.97;4952279;28;20034;-87
2023/06/27 06:44:09;;;;;;;4.85;1.42;;;;;;;21.15;86.85;100022.09;4968274;28;20306;-87
2023/06/27 06:46:35;;;;;;;7.60;1.63;;;;;;;21.65;83.79;99917.94;4952751;29;20524;-86
2023/06/27 06:49:00;;;;;;;5.28;1.58;;;;;;;21.11;87.01;100059.75;4951257;28;20037;-87
2023/06/27 06:51:26;;;;;;;5.25;1.40;;;;;;;20.73;84.99;99847.06;4951095;28;20039;-85
2023/06/27 06:53:51;;;;;;;9.93;2.60;;;;;;;19.57;88.02;99844.94;4950663;28;20078;-86
2023/06/27 06:56:17;;;;;;;6.73;1.97;;;;;;;20.55;88.64;100126.63;4969091;28;20314;-84
2023/06/27 06:58:42;;;;;;;5.07;1.97;;;;;;;19.28;89.53;99907.22;4955014;28;20286;-84
2023/06/27 07:01:07;;;;;;;12.53;1.53;;;;;;;19.71;90.18;100054.81;4955067;29;20031;-84
2023/06/27 07:03:36;;;;;;;7.07;1.40;;;;;;;20.20;89.60;100119.47;4956256;28;20468;-87
2023/06/27 07:06:02;;;;;;;9.13;2.10;;;;;;;20.55;86.42;100008.13;4960351;28;20405;-87
2023/06/27 07:08:27;;;;;;;5.33;1.33;;;;;;;20.57;85.92;99984.34;4954478;28;20015;-86
2023/06/27 07:10:52;;;;;;;3.73;1.30;;;;;;;21.29;82.53;99893.06;4937952;29;20042;-88
2023/06/27 07:13:18;;;;;;;7.60;1.80;;;;;;;21.09;82.40;99861.06;4953094;28;20035;-87
2023/06/27 07:15:44;;;;;;;5.07;1.40;;;;;;;20.62;82.77;99821.69;4954015;28;20033;-86
2023/06/27 07:18:09;;;;;;;9.80;1.95;;;;;;;20.17;84.86;99874.16;4953845;28;20031;-86
2023/06/27 07:20:34;;;;;;;6.83;1.60;;;;;;;18.44;87.82;99794.03;4954382;28;20042;-86
2023/06/27 07:23:00;;;;;;;7.20;1.67;;;;;;;18.61;90.25;100001.44;4948225;29;20115;-86
2023/06/27 07:25:25;;;;;;;7.63;2.57;;;;;;;18.97;91.79;100177.06;4952986;28;20042;-86
2023/06/27 07:27:50;;;;;;;4.73;1.30;;;;;;;20.72;88.05;100278.56;4964706;28;20031;-87
2023/06/27 07:30:16;;;;;;;5.20;1.63;;;;;;;20.69;85.55;100072.94;4953947;28;20426;-87
2023/06/27 07:32:41;;;;;;;3.93;2.03;;;;;;;21.32;83.09;100033.72;4969380;28;20031;-86
2023/06/27 07:35:07;;;;;;;7.10;1.67;;;;;;;20.06;82.84;99744.22;4961070;28;20037;-87
2023/06/27 07:37:33;;;;;;;;;;;;;;;19.16;86.92;99901.03;4969657;28;20039;-86
2023/06/27 07:39:58;;;;;;;6.72;1.10;;;;;;;19.40;87.54;100032.50;4943449;28;19911;-87
2023/06/27 07:42:27;;;;;;;4.85;1.55;;;;;;;20.80;83.86;100028.63;4969397;28;20947;-86
2023/06/27 07:44:52;;;;;;;3.67;1.20;;;;;;;20.08;83.86;99904.63;4952519;28;20098;-87
2023/06/27 07:47:18;;;;;;;4.60;1.00;;;;;;;20.52;82.23;99911.03;4969641;28;20659;-87
2023/06/27 07:49:43;;;;;;;6.90;1.37;;;;;;;19.33;82.13;99622.34;4953299;28;20074;-86
2023/06/27 07:52:09;;;;;;;5.00;1.10;;;;;;;19.81;82.68;99826.72;4952871;28;20105;-87
2023/06/27 07:54:35;;;;;;;8.88;1.92;;;;;;;19.19;82.99;99689.50;4943632;28;20147;-86
2023/06/27 07:57:01;;;;;;;4.63;1.02;;;;;;;19.99;84.32;100024.25;4950267;29;20047;-87
2023/06/27 07:59:27;;;;;;;5.55;1.60;;;;;;;20.10;82.27;99837.47;4950611;28;20102;-87
2023/06/27 08:01:53;;;;;;;10.13;2.13;;;;;;;20.66;80.92;99931.31;4950671;29;20035;-87
2023/06/27 08:04:19;;;;;;;6.65;2.45;;;;;;;20.95;78.40;99792.81;4950734;29;20812;-86
2023/06/27 08:06:44;;;;;;;5.35;1.00;;;;;;;21.13;75.53;99590.03;4940455;28;20043;-86
2023/06/27 08:09:10;;;;;;;2.67;0.93;;;;;;;21.49;73.62;99556.63;4952452;28;20536;-87
2023/06/27 08:11:35;;;;;;;6.57;1.30;;;;;;;20.93;74.66;99488.41;4969109;28;20042;-87
2023/06/27 08:14:01;;;;;;;3.77;1.10;;;;;;;21.27;75.39;99719.59;4952643;28;20035;-88
2023/06/27 08:16:26;;;;;;;4.07;1.38;;;;;;;21.52;72.85;99528.13;4953093;28;20036;-87
2023/06/27 08:18:52;;;;;;;4.03;0.93;;;;;;;22.45;72.05;99666.03;4952719;28;20483;-87
2023/06/27 08:21:17;;;;;;;6.18;1.40;;;;;;;22.15;69.19;99329.69;4968407;28;20038;-85
2023/06/27 08:23:43;;;;;;;5.10;1.45;;;;;;;21.75;69.84;99342.19;4950041;28;20034;-84
2023/06/27 08:26:13;;;;;;;6.03;2.00;;;;;;;21.97;70.16;99471.53;4953934;28;20117;-86
2023/06/27 08:28:39;;;;;;;5.20;1.27;;;;;;;22.13;69.33;99441.38;4968755;28;20122;-86
2023/06/27 08:31:04;;;;;;;5.13;1.10;;;;;;;22.43;67.90;99404.44;4954022;28;20054;-86
2023/06/27 08:33:29;;;;;;;4.13;1.63;;;;;;;21.91;69.22;99398.16;4953732;28;20043;-85
2023/06/27 08:35:55;;;;;;;2.50;1.03;;;;;;;21.96;70.31;99592.16;4953170;28;20027;-84
2023/06/27 08:38:20;;;;;;;7.05;1.27;;;;;;;22.73;70.57;99813.53;4953313;28;20042;-87
2023/06/27 08:40:48;;;;;;;5.20;1.20;;;;;;;22.84;66.81;99457.97;4953719;28;20031;-88
2023/06/27 08:43:13;;;;;;;2.58;1.20;;;;;;;22.88;67.38;99527.06;4953570;29;20062;-87
2023/06/27 08:45:39;;;;;;;2.87;0.90;;;;;;;22.47;65.50;99242.34;4949618;28;20079;-87
2023/06/27 08:48:09;;;;;;;5.90;1.20;;;;;;;22.55;66.42;99425.91;4937477;29;20027;-87
2023/06/27 08:50:41;;;;;;;5.05;1.42;;;;;;;22.20;65.75;99207.34;4952871;28;20035;-84
2023/06/27 08:53:09;;;;;;;3.03;1.02;;;;;;;21.10;66.43;99037.03;4952953;28;20504;-87
2023/06/27 08:55:49;;;;;;;4.50;1.23;;;;;;;21.25;67.75;99302.94;4952746;28;20489;-87
2023/06/27 08:58:15;;;;;;;4.35;1.15;;;;;;;21.63;70.88;99759.84;4967224;28;20039;-86
2023/06/27 09:00:44;;;;;;;3.47;1.10;;;;;;;21.45;70.64;99609.00;4936110;28;20027;-87
2023/06/27 09:03:11;;;;;;;6.30;1.30;;;;;;;20.32;75.73;99777.91;4952223;28;20035;-84
2023/06/27 09:05:37;;;;;;;4.75;1.10;;;;;;;19.68;78.89;99876.59;4952248;29;20032;-86
2023/06/27 09:08:02;;;;;;;7.60;1.70;;;;;;;19.39;80.73;99914.47;4968699;28;20035;-87
2023/06/27 09:10:28;;;;;;;6.13;1.10;;;;;;;19.21;79.94;99822.66;4936114;29;20031;-87
2023/06/27 09:12:54;;;;;;;;;;;;;;;21.05;76.87;99985.59;4952348;28;20063;-86
2023/06/27 09:15:20;;;;;;;7.47;1.85;;;;;;;22.11;71.22;99690.88;4951108;28;20008;-86
2023/06/27 09:17:47;;;;;;;3.13;0.80;;;;;;;22.95;67.71;99552.09;4951683;28;20093;-87
2023/06/27 09:20:17;;;;;;;;;;;;;;;23.73;64.87;99420.06;4952183;28;20027;-87
2023/06/27 09:22:42;;;;;;;10.95;1.67;;;;;;;24.67;62.79;99422.66;4963264;28;20567;-87
2023/06/27 09:25:12;;;;;;;5.63;1.02;;;;;;;21.96;65.26;99029.72;4944185;28;20027;-87
2023/06/27 09:27:38;;;;;;;6.57;1.67;;;;;;;20.13;72.48;99351.97;4936520;29;20035;-87
2023/06/27 09:30:11;;;;;;;7.68;1.35;;;;;;;19.44;74.75;99498.84;4952201;29;20019;-87
2023/06/27 09:32:53;;;;;;;7.20;1.00;;;;;;;19.27;76.38;99655.78;4952558;28;20090;-88
2023/06/27 09:35:19;;;;;;;4.57;1.13;;;;;;;20.06;76.54;99841.75;4961606;28;20027;-87
2023/06/27 09:37:45;;;;;;;6.00;1.73;;;;;;;21.86;74.11;100061.06;4947200;28;20031;-87
2023/06/27 09:40:21;;;;;;;2.50;1.20;;;;;;;22.85;71.34;99973.88;4968152;28;20502;-87
2023/06/27 09:42:50;;;;;;;;;;;;;;;23.59;69.39;99957.38;4952032;29;20035;-87
2023/06/27 09:45:16;;;;;;;3.97;1.13;;;;;;;24.07;65.40;99659.22;4983588;28;19921;-86
2023/06/27 09:47:42;;;;;;;7.35;1.50;;;;;;;24.33;63.34;99524.41;4951214;29;20039;-87
2023/06/27 09:50:07;;;;;;;6.85;1.15;;;;;;;22.73;62.77;99025.47;4951083;28;20097;-87
2023/06/27 09:52:33;;;;;;;5.35;1.30;;;;;;;22.91;62.54;99140.13;4951288;28;20077;-87
2023/06/27 09:54:58;;;;;;;6.93;1.60;;;;;;;23.46;62.33;99315.09;4941107;29;20044;-87
2023/06/27 09:57:25;;;;;;;4.73;0.80;;;;;;;23.16;61.45;99150.03;4951776;29;20043;-86
2023/06/27 09:59:57;;;;;;;3.67;1.25;;;;;;;23.96;58.74;99064.28;4952295;28;20033;-88
2023/06/27 10:02:28;;;;;;;5.95;1.02;;;;;;;22.26;59.84;98670.78;4967319;28;20582;-87
2023/06/27 10:04:53;;;;;;;4.65;1.02;;;;;;;21.88;63.94;99143.31;4951071;28;20035;-87
2023/06/27 10:07:19;;;;;;;4.17;1.27;;;;;;;22.76;64.11;99517.28;4951407;28;20114;-86
2023/06/27 10:09:45;;;;;;;3.70;0.80;;;;;;;22.20;62.04;99008.94;4935698;29;20043;-84
2023/06/27 10:12:10;;;;;;;7.95;0.95;;;;;;;21.65;58.60;98486.75;4967822;28;20027;-87
2023/06/27 10:14:36;;;;;;;1.50;0.70;;;;;;;21.75;57.58;98386.19;4967202;28;20039;-86
2023/06/27 10:17:03;;;;;;;4.82;1.30;;;;;;;22.23;58.35;98704.00;4951765;28;20031;-87
2023/06/27 10:19:32;;;;;;;3.10;0.68;;;;;;;22.42;58.98;98937.03;4968584;28;20066;-87
2023/06/27 10:22:00;;;;;;;2.08;0.60;;;;;;;23.53;58.30;99146.72;4952056;29;20102;-87
2023/06/27 10:24:28;;;;;;;3.90;0.90;;;;;;;23.67;57.60;99080.66;4968352;28;20046;-87
2023/06/27 10:26:56;;;;;;;2.83;0.90;;;;;;;24.54;58.40;99396.06;4952758;28;20039;-87
2023/06/27 10:29:23;;;;;;;4.78;1.17;;;;;;;23.14;58.31;98938.00;4969621;28;20042;-87
2023/06/27 10:31:50;;;;;;;5.20;1.40;;;;;;;21.80;60.85;98839.66;4939224;29;20077;-88
2023/06/27 10:34:24;;;;;;;3.53;1.05;;;;;;;21.84;62.69;99169.38;4971341;28;20039;-87
2023/06/27 10:37:01;;;;;;;2.28;0.82;;;;;;;21.67;61.51;98957.88;4971649;28;20155;-88
2023/06/27 10:39:31;;;;;;;4.93;1.38;;;;;;;22.98;61.40;99331.09;4976196;28;20035;-87
2023/06/27 10:42:00;;;;;;;4.43;0.88;;;;;;;22.28;59.47;98852.63;4955630;29;20066;-87
2023/06/27 10:44:25;;;;;;;2.00;0.93;;;;;;;21.43;62.12;98933.28;4971931;28;20059;-87
2023/06/27 10:47:13;;;;;;;5.93;0.83;;;;;;;20.49;64.96;99048.66;4940494;29;20139;-86
2023/06/27 10:49:38;;;;;;;4.65;0.65;;;;;;;22.08;64.04;99456.88;4968345;28;20043;-87
2023/06/27 10:52:04;;;;;;;6.57;1.00;;;;;;;22.66;59.65;99041.25;4955482;28;20050;-86
2023/06/27 10:54:29;;;;;;;4.65;1.05;;;;;;;23.79;59.54;99326.34;4971771;28;20052;-86
2023/06/27 10:56:59;;;;;;;2.85;0.98;;;;;;;22.65;60.81;99121.25;4955943;28;20031;-87
2023/06/27 10:59:24;;;;;;;2.80;1.00;;;;;;;21.27;64.51;99152.31;4940198;29;20031;-86
2023/06/27 11:02:02;;;;;;;8.80;0.93;;;;;;;20.75;70.83;99722.88;4939729;29;20033;-86
2023/06/27 11:04:44;;;;;;;12.02;1.77;;;;;;;19.88;79.50;100165.13;4956137;29;20027;-87
2023/06/27 11:07:17;;;;;;;4.30;1.15;;;;;;;19.07;91.82;100555.28;4970623;28;20068;-87
2023/06/27 11:09:51;;;;;;;5.55;1.23;;;;;;;18.25;100.00;100835.50;4971301;28;20027;-86
2023/06/27 11:12:16;;;;;;;5.68;1.10;;;;;;;18.09;100.00;100948.34;4964993;28;20035;-87
2023/06/27 11:14:43;;;;;;;5.40;1.30;;;;;;;17.50;100.00;100833.00;4939474;29;20027;-86
2023/06/27 11:17:10;;;;;;;3.50;1.30;;;;;;;16.96;100.00;100796.16;4940199;29;20059;-88
2023/06/27 11:19:38;;;;;;;4.60;1.23;;;;;;;16.13;100.00;100780.84;4939701;28;20091;-86
2023/06/27 11:22:04;;;;;;;8.60;1.48;;;;;;;15.13;100.00;100952.13;4956469;28;20086;-86